sensor_id;sensor_type;location;lat;lon;timestamp;P1;durP1;ratioP1;P2;durP2;ratioP2
6288;SDS011;3177;49.880;8.836;2022-12-07T00:00:16;15.10;;;9.60;;
6288;SDS011;3177;49.880;8.836;2022-12-07T00:02:44;16.07;;;10.70;;
6288;SDS011;3177;49.880;8.836;2022-12-07T00:05:11;13.87;;;9.63;;
6288;SDS011;3177;49.880;8.836;2022-12-07T00:07:39;16.70;;;10.47;;
6288;SDS011;3177;49.880;8.836;2022-12-07T00:10:07;15.47;;;9.97;;
6288;SDS011;3177;49.880;8.836;2022-12-07T00:12:34;12.90;;;9.17;;
6288;SDS011;3177;49.880;8.836;2022-12-07T00:15:01;15.87;;;10.37;;
6288;SDS011;3177;49.880;8.836;2022-12-07T00:17:28;16.37;;;10.20;;
6288;SDS011;3177;49.880;8.836;2022-12-07T00:19:55;16.50;;;10.50;;
6288;SDS011;3177;49.880;8.836;2022-12-07T00:22:22;15.00;;;9.87;;
6288;SDS011;3177;49.880;8.836;2022-12-07T00:24:50;14.27;;;10.17;;
6288;SDS011;3177;49.880;8.836;2022-12-07T00:27:18;15.73;;;10.57;;
6288;SDS011;3177;49.880;8.836;2022-12-07T00:29:45;17.13;;;11.10;;
6288;SDS011;3177;49.880;8.836;2022-12-07T00:32:12;15.77;;;10.03;;
6288;SDS011;3177;49.880;8.836;2022-12-07T00:34:39;14.17;;;8.90;;
6288;SDS011;3177;49.880;8.836;2022-12-07T00:37:06;14.40;;;10.27;;
6288;SDS011;3177;49.880;8.836;2022-12-07T00:39:33;14.47;;;9.43;;
6288;SDS011;3177;49.880;8.836;2022-12-07T00:42:02;14.73;;;8.70;;
6288;SDS011;3177;49.880;8.836;2022-12-07T00:44:29;13.90;;;9.10;;
6288;SDS011;3177;49.880;8.836;2022-12-07T00:46:56;13.90;;;10.43;;
6288;SDS011;3177;49.880;8.836;2022-12-07T00:49:23;16.67;;;9.90;;
6288;SDS011;3177;49.880;8.836;2022-12-07T00:51:50;15.10;;;10.60;;
6288;SDS011;3177;49.880;8.836;2022-12-07T00:54:17;14.27;;;10.67;;
6288;SDS011;3177;49.880;8.836;2022-12-07T00:56:44;17.90;;;11.20;;
6288;SDS011;3177;49.880;8.836;2022-12-07T00:59:14;18.17;;;11.37;;
6288;SDS011;3177;49.880;8.836;2022-12-07T01:01:41;19.67;;;11.10;;
6288;SDS011;3177;49.880;8.836;2022-12-07T01:04:08;19.53;;;10.87;;
6288;SDS011;3177;49.880;8.836;2022-12-07T01:06:35;14.20;;;10.60;;
6288;SDS011;3177;49.880;8.836;2022-12-07T01:09:03;17.27;;;10.40;;
6288;SDS011;3177;49.880;8.836;2022-12-07T01:11:31;15.03;;;9.70;;
6288;SDS011;3177;49.880;8.836;2022-12-07T01:13:59;17.13;;;10.53;;
6288;SDS011;3177;49.880;8.836;2022-12-07T01:16:28;14.63;;;10.33;;
6288;SDS011;3177;49.880;8.836;2022-12-07T01:18:56;17.93;;;11.23;;
6288;SDS011;3177;49.880;8.836;2022-12-07T01:21:24;16.27;;;9.43;;
6288;SDS011;3177;49.880;8.836;2022-12-07T01:23:51;14.93;;;10.40;;
6288;SDS011;3177;49.880;8.836;2022-12-07T01:26:20;17.23;;;9.57;;
6288;SDS011;3177;49.880;8.836;2022-12-07T01:28:47;16.83;;;11.13;;
6288;SDS011;3177;49.880;8.836;2022-12-07T01:31:16;16.70;;;10.97;;
6288;SDS011;3177;49.880;8.836;2022-12-07T01:33:46;19.67;;;10.53;;
6288;SDS011;3177;49.880;8.836;2022-12-07T01:36:14;15.00;;;9.73;;
6288;SDS011;3177;49.880;8.836;2022-12-07T01:38:41;16.47;;;11.03;;
6288;SDS011;3177;49.880;8.836;2022-12-07T01:41:09;14.97;;;10.70;;
6288;SDS011;3177;49.880;8.836;2022-12-07T01:43:36;16.83;;;10.70;;
6288;SDS011;3177;49.880;8.836;2022-12-07T01:46:03;18.13;;;11.20;;
6288;SDS011;3177;49.880;8.836;2022-12-07T01:48:31;14.33;;;9.97;;
6288;SDS011;3177;49.880;8.836;2022-12-07T01:51:02;18.00;;;10.63;;
6288;SDS011;3177;49.880;8.836;2022-12-07T01:53:30;16.27;;;11.00;;
6288;SDS011;3177;49.880;8.836;2022-12-07T01:55:59;16.27;;;10.70;;
6288;SDS011;3177;49.880;8.836;2022-12-07T01:58:26;14.80;;;10.47;;
6288;SDS011;3177;49.880;8.836;2022-12-07T02:00:53;14.00;;;9.80;;
6288;SDS011;3177;49.880;8.836;2022-12-07T02:03:21;15.53;;;9.90;;
6288;SDS011;3177;49.880;8.836;2022-12-07T02:05:49;15.93;;;10.07;;
6288;SDS011;3177;49.880;8.836;2022-12-07T02:08:18;14.67;;;9.70;;
6288;SDS011;3177;49.880;8.836;2022-12-07T02:10:46;17.13;;;10.33;;
6288;SDS011;3177;49.880;8.836;2022-12-07T02:13:14;17.27;;;11.00;;
6288;SDS011;3177;49.880;8.836;2022-12-07T02:15:46;15.37;;;10.10;;
6288;SDS011;3177;49.880;8.836;2022-12-07T02:18:17;15.83;;;10.80;;
6288;SDS011;3177;49.880;8.836;2022-12-07T02:20:47;14.80;;;9.97;;
6288;SDS011;3177;49.880;8.836;2022-12-07T02:23:28;16.57;;;11.47;;
6288;SDS011;3177;49.880;8.836;2022-12-07T02:28:49;13.70;;;9.03;;
6288;SDS011;3177;49.880;8.836;2022-12-07T02:31:19;14.03;;;9.90;;
6288;SDS011;3177;49.880;8.836;2022-12-07T02:33:48;14.97;;;9.20;;
6288;SDS011;3177;49.880;8.836;2022-12-07T02:36:17;16.30;;;9.60;;
6288;SDS011;3177;49.880;8.836;2022-12-07T02:38:48;28.37;;;8.73;;
6288;SDS011;3177;49.880;8.836;2022-12-07T02:41:19;16.17;;;10.03;;
6288;SDS011;3177;49.880;8.836;2022-12-07T02:43:50;17.70;;;10.40;;
6288;SDS011;3177;49.880;8.836;2022-12-07T02:46:20;14.43;;;10.10;;
6288;SDS011;3177;49.880;8.836;2022-12-07T02:48:48;13.60;;;9.90;;
6288;SDS011;3177;49.880;8.836;2022-12-07T02:51:17;18.20;;;10.60;;
6288;SDS011;3177;49.880;8.836;2022-12-07T02:53:44;18.30;;;9.20;;
6288;SDS011;3177;49.880;8.836;2022-12-07T02:56:13;28.67;;;15.67;;
6288;SDS011;3177;49.880;8.836;2022-12-07T02:58:46;14.23;;;10.50;;
6288;SDS011;3177;49.880;8.836;2022-12-07T03:01:21;13.60;;;9.50;;
6288;SDS011;3177;49.880;8.836;2022-12-07T03:03:56;15.53;;;9.73;;
6288;SDS011;3177;49.880;8.836;2022-12-07T03:06:26;16.07;;;10.27;;
6288;SDS011;3177;49.880;8.836;2022-12-07T03:08:56;21.20;;;10.40;;
6288;SDS011;3177;49.880;8.836;2022-12-07T03:11:25;15.53;;;10.03;;
6288;SDS011;3177;49.880;8.836;2022-12-07T03:13:55;17.07;;;9.80;;
6288;SDS011;3177;49.880;8.836;2022-12-07T03:16:30;17.87;;;11.17;;
6288;SDS011;3177;49.880;8.836;2022-12-07T03:18:59;20.77;;;9.60;;
6288;SDS011;3177;49.880;8.836;2022-12-07T03:21:27;14.30;;;10.30;;
6288;SDS011;3177;49.880;8.836;2022-12-07T03:23:59;11.60;;;7.50;;
6288;SDS011;3177;49.880;8.836;2022-12-07T03:26:28;13.17;;;9.10;;
6288;SDS011;3177;49.880;8.836;2022-12-07T03:28:58;16.23;;;10.03;;
6288;SDS011;3177;49.880;8.836;2022-12-07T03:31:28;14.30;;;9.90;;
6288;SDS011;3177;49.880;8.836;2022-12-07T03:34:01;14.60;;;9.73;;
6288;SDS011;3177;49.880;8.836;2022-12-07T03:36:34;14.03;;;9.20;;
6288;SDS011;3177;49.880;8.836;2022-12-07T03:39:07;14.07;;;8.93;;
6288;SDS011;3177;49.880;8.836;2022-12-07T03:41:38;10.83;;;8.40;;
6288;SDS011;3177;49.880;8.836;2022-12-07T03:44:05;6.10;;;5.43;;
6288;SDS011;3177;49.880;8.836;2022-12-07T03:46:35;11.97;;;8.73;;
6288;SDS011;3177;49.880;8.836;2022-12-07T03:49:06;12.47;;;9.07;;
6288;SDS011;3177;49.880;8.836;2022-12-07T03:51:37;13.23;;;8.30;;
6288;SDS011;3177;49.880;8.836;2022-12-07T03:54:07;11.60;;;7.63;;
6288;SDS011;3177;49.880;8.836;2022-12-07T03:56:36;10.83;;;8.23;;
6288;SDS011;3177;49.880;8.836;2022-12-07T03:59:03;11.07;;;8.10;;
6288;SDS011;3177;49.880;8.836;2022-12-07T04:01:31;9.07;;;6.77;;
6288;SDS011;3177;49.880;8.836;2022-12-07T04:03:58;10.43;;;7.43;;
6288;SDS011;3177;49.880;8.836;2022-12-07T04:06:26;11.03;;;7.47;;
6288;SDS011;3177;49.880;8.836;2022-12-07T04:08:53;11.63;;;7.77;;
6288;SDS011;3177;49.880;8.836;2022-12-07T04:11:20;10.33;;;7.17;;
6288;SDS011;3177;49.880;8.836;2022-12-07T04:13:48;10.27;;;6.90;;
6288;SDS011;3177;49.880;8.836;2022-12-07T04:16:32;9.93;;;7.00;;
6288;SDS011;3177;49.880;8.836;2022-12-07T04:18:59;16.17;;;7.37;;
6288;SDS011;3177;49.880;8.836;2022-12-07T04:21:28;9.67;;;6.30;;
6288;SDS011;3177;49.880;8.836;2022-12-07T04:23:55;9.03;;;6.87;;
6288;SDS011;3177;49.880;8.836;2022-12-07T04:26:22;10.67;;;7.47;;
6288;SDS011;3177;49.880;8.836;2022-12-07T04:28:49;9.83;;;5.90;;
6288;SDS011;3177;49.880;8.836;2022-12-07T04:31:16;5.50;;;4.97;;
6288;SDS011;3177;49.880;8.836;2022-12-07T04:33:43;5.70;;;5.20;;
6288;SDS011;3177;49.880;8.836;2022-12-07T04:36:10;10.10;;;7.00;;
6288;SDS011;3177;49.880;8.836;2022-12-07T04:38:39;12.77;;;6.90;;
6288;SDS011;3177;49.880;8.836;2022-12-07T04:41:06;7.63;;;6.50;;
6288;SDS011;3177;49.880;8.836;2022-12-07T04:43:33;8.07;;;6.53;;
6288;SDS011;3177;49.880;8.836;2022-12-07T04:46:01;10.53;;;7.00;;
6288;SDS011;3177;49.880;8.836;2022-12-07T04:48:28;8.97;;;6.90;;
6288;SDS011;3177;49.880;8.836;2022-12-07T04:50:55;8.53;;;7.10;;
6288;SDS011;3177;49.880;8.836;2022-12-07T04:53:23;7.70;;;4.80;;
6288;SDS011;3177;49.880;8.836;2022-12-07T04:55:51;8.30;;;6.47;;
6288;SDS011;3177;49.880;8.836;2022-12-07T04:58:18;7.43;;;6.50;;
6288;SDS011;3177;49.880;8.836;2022-12-07T05:00:45;7.27;;;5.83;;
6288;SDS011;3177;49.880;8.836;2022-12-07T05:03:12;8.50;;;6.00;;
6288;SDS011;3177;49.880;8.836;2022-12-07T05:05:40;7.53;;;5.93;;
6288;SDS011;3177;49.880;8.836;2022-12-07T05:08:07;7.40;;;5.97;;
6288;SDS011;3177;49.880;8.836;2022-12-07T05:10:34;6.87;;;5.63;;
6288;SDS011;3177;49.880;8.836;2022-12-07T05:13:03;8.73;;;5.77;;
6288;SDS011;3177;49.880;8.836;2022-12-07T05:15:30;10.10;;;7.33;;
6288;SDS011;3177;49.880;8.836;2022-12-07T05:17:57;10.30;;;7.17;;
6288;SDS011;3177;49.880;8.836;2022-12-07T05:20:24;8.57;;;6.03;;
6288;SDS011;3177;49.880;8.836;2022-12-07T05:22:51;12.67;;;7.27;;
6288;SDS011;3177;49.880;8.836;2022-12-07T05:25:18;12.67;;;6.97;;
6288;SDS011;3177;49.880;8.836;2022-12-07T05:27:45;9.03;;;6.30;;
6288;SDS011;3177;49.880;8.836;2022-12-07T05:30:14;10.83;;;7.13;;
6288;SDS011;3177;49.880;8.836;2022-12-07T05:32:41;10.23;;;6.83;;
6288;SDS011;3177;49.880;8.836;2022-12-07T05:35:08;8.97;;;6.63;;
6288;SDS011;3177;49.880;8.836;2022-12-07T05:37:36;9.60;;;6.57;;
6288;SDS011;3177;49.880;8.836;2022-12-07T05:40:03;8.93;;;6.37;;
6288;SDS011;3177;49.880;8.836;2022-12-07T05:42:31;7.37;;;6.50;;
6288;SDS011;3177;49.880;8.836;2022-12-07T05:44:58;7.70;;;6.63;;
6288;SDS011;3177;49.880;8.836;2022-12-07T05:47:26;8.67;;;6.40;;
6288;SDS011;3177;49.880;8.836;2022-12-07T05:49:53;11.60;;;7.30;;
6288;SDS011;3177;49.880;8.836;2022-12-07T05:52:21;10.40;;;7.57;;
6288;SDS011;3177;49.880;8.836;2022-12-07T05:54:48;12.90;;;8.07;;
6288;SDS011;3177;49.880;8.836;2022-12-07T05:57:15;10.07;;;7.33;;
6288;SDS011;3177;49.880;8.836;2022-12-07T05:59:42;13.13;;;7.70;;
6288;SDS011;3177;49.880;8.836;2022-12-07T06:02:09;9.40;;;7.20;;
6288;SDS011;3177;49.880;8.836;2022-12-07T06:04:38;11.83;;;7.60;;
6288;SDS011;3177;49.880;8.836;2022-12-07T06:07:06;13.50;;;7.80;;
6288;SDS011;3177;49.880;8.836;2022-12-07T06:09:33;13.80;;;8.73;;
6288;SDS011;3177;49.880;8.836;2022-12-07T06:12:01;11.77;;;7.70;;
6288;SDS011;3177;49.880;8.836;2022-12-07T06:14:46;10.83;;;8.10;;
6288;SDS011;3177;49.880;8.836;2022-12-07T06:17:13;11.80;;;8.17;;
6288;SDS011;3177;49.880;8.836;2022-12-07T06:19:41;10.70;;;7.60;;
6288;SDS011;3177;49.880;8.836;2022-12-07T06:22:09;18.40;;;9.47;;
6288;SDS011;3177;49.880;8.836;2022-12-07T06:24:36;12.30;;;7.93;;
6288;SDS011;3177;49.880;8.836;2022-12-07T06:27:04;11.70;;;8.23;;
6288;SDS011;3177;49.880;8.836;2022-12-07T06:29:34;10.43;;;7.90;;
6288;SDS011;3177;49.880;8.836;2022-12-07T06:32:02;10.83;;;8.20;;
6288;SDS011;3177;49.880;8.836;2022-12-07T06:34:30;9.23;;;7.03;;
6288;SDS011;3177;49.880;8.836;2022-12-07T06:36:58;10.37;;;8.07;;
6288;SDS011;3177;49.880;8.836;2022-12-07T06:39:28;11.67;;;8.23;;
6288;SDS011;3177;49.880;8.836;2022-12-07T06:41:55;9.97;;;7.67;;
6288;SDS011;3177;49.880;8.836;2022-12-07T06:44:22;11.60;;;8.07;;
6288;SDS011;3177;49.880;8.836;2022-12-07T06:46:52;12.93;;;7.70;;
6288;SDS011;3177;49.880;8.836;2022-12-07T06:49:19;10.37;;;6.40;;
6288;SDS011;3177;49.880;8.836;2022-12-07T06:51:46;9.00;;;6.77;;
6288;SDS011;3177;49.880;8.836;2022-12-07T06:54:15;11.47;;;7.80;;
6288;SDS011;3177;49.880;8.836;2022-12-07T06:56:42;10.80;;;7.47;;
6288;SDS011;3177;49.880;8.836;2022-12-07T06:59:09;12.77;;;8.53;;
6288;SDS011;3177;49.880;8.836;2022-12-07T07:01:36;10.43;;;8.40;;
6288;SDS011;3177;49.880;8.836;2022-12-07T07:04:03;14.37;;;8.57;;
6288;SDS011;3177;49.880;8.836;2022-12-07T07:06:31;11.63;;;8.23;;
6288;SDS011;3177;49.880;8.836;2022-12-07T07:08:58;10.23;;;6.77;;
6288;SDS011;3177;49.880;8.836;2022-12-07T07:11:26;12.07;;;8.90;;
6288;SDS011;3177;49.880;8.836;2022-12-07T07:13:54;11.93;;;8.20;;
6288;SDS011;3177;49.880;8.836;2022-12-07T07:16:27;11.90;;;8.60;;
6288;SDS011;3177;49.880;8.836;2022-12-07T07:18:54;12.73;;;8.90;;
6288;SDS011;3177;49.880;8.836;2022-12-07T07:21:21;13.00;;;9.00;;
6288;SDS011;3177;49.880;8.836;2022-12-07T07:23:48;10.97;;;8.30;;
6288;SDS011;3177;49.880;8.836;2022-12-07T07:26:15;14.37;;;8.40;;
6288;SDS011;3177;49.880;8.836;2022-12-07T07:28:44;12.67;;;8.53;;
6288;SDS011;3177;49.880;8.836;2022-12-07T07:31:11;13.63;;;7.70;;
6288;SDS011;3177;49.880;8.836;2022-12-07T07:33:38;14.40;;;7.97;;
6288;SDS011;3177;49.880;8.836;2022-12-07T07:36:05;13.50;;;8.80;;
6288;SDS011;3177;49.880;8.836;2022-12-07T07:38:33;12.43;;;8.50;;
6288;SDS011;3177;49.880;8.836;2022-12-07T07:41:00;13.97;;;8.87;;
6288;SDS011;3177;49.880;8.836;2022-12-07T07:43:27;14.30;;;8.70;;
6288;SDS011;3177;49.880;8.836;2022-12-07T07:45:55;12.37;;;8.73;;
6288;SDS011;3177;49.880;8.836;2022-12-07T07:48:22;14.80;;;8.80;;
6288;SDS011;3177;49.880;8.836;2022-12-07T07:50:50;12.77;;;9.07;;
6288;SDS011;3177;49.880;8.836;2022-12-07T07:53:17;15.37;;;11.13;;
6288;SDS011;3177;49.880;8.836;2022-12-07T07:55:50;13.47;;;9.63;;
6288;SDS011;3177;49.880;8.836;2022-12-07T07:58:17;11.97;;;8.43;;
6288;SDS011;3177;49.880;8.836;2022-12-07T08:00:44;14.53;;;8.83;;
6288;SDS011;3177;49.880;8.836;2022-12-07T08:03:13;11.03;;;8.77;;
6288;SDS011;3177;49.880;8.836;2022-12-07T08:05:40;10.93;;;8.30;;
6288;SDS011;3177;49.880;8.836;2022-12-07T08:08:07;10.30;;;8.07;;
6288;SDS011;3177;49.880;8.836;2022-12-07T08:10:34;14.73;;;10.30;;
6288;SDS011;3177;49.880;8.836;2022-12-07T08:13:02;14.33;;;9.27;;
6288;SDS011;3177;49.880;8.836;2022-12-07T08:15:40;14.80;;;7.67;;
6288;SDS011;3177;49.880;8.836;2022-12-07T08:18:07;11.80;;;8.53;;
6288;SDS011;3177;49.880;8.836;2022-12-07T08:20:35;12.30;;;8.73;;
6288;SDS011;3177;49.880;8.836;2022-12-07T08:23:03;10.90;;;8.43;;
6288;SDS011;3177;49.880;8.836;2022-12-07T08:25:31;12.33;;;8.57;;
6288;SDS011;3177;49.880;8.836;2022-12-07T08:27:58;10.70;;;8.10;;
6288;SDS011;3177;49.880;8.836;2022-12-07T08:30:26;15.77;;;8.37;;
6288;SDS011;3177;49.880;8.836;2022-12-07T08:32:53;14.83;;;8.40;;
6288;SDS011;3177;49.880;8.836;2022-12-07T08:35:21;12.77;;;8.07;;
6288;SDS011;3177;49.880;8.836;2022-12-07T08:37:49;14.60;;;9.37;;
6288;SDS011;3177;49.880;8.836;2022-12-07T08:40:16;12.07;;;9.20;;
6288;SDS011;3177;49.880;8.836;2022-12-07T08:42:44;12.93;;;8.50;;
6288;SDS011;3177;49.880;8.836;2022-12-07T08:45:13;13.50;;;8.80;;
6288;SDS011;3177;49.880;8.836;2022-12-07T08:47:42;14.90;;;9.03;;
6288;SDS011;3177;49.880;8.836;2022-12-07T08:50:10;13.43;;;9.17;;
6288;SDS011;3177;49.880;8.836;2022-12-07T08:52:38;12.70;;;8.13;;
6288;SDS011;3177;49.880;8.836;2022-12-07T08:55:08;12.60;;;8.77;;
6288;SDS011;3177;49.880;8.836;2022-12-07T08:57:36;12.80;;;9.03;;
6288;SDS011;3177;49.880;8.836;2022-12-07T09:00:03;13.53;;;9.10;;
6288;SDS011;3177;49.880;8.836;2022-12-07T09:02:30;12.50;;;8.23;;
6288;SDS011;3177;49.880;8.836;2022-12-07T09:04:58;11.57;;;9.33;;
6288;SDS011;3177;49.880;8.836;2022-12-07T09:07:25;11.07;;;7.30;;
6288;SDS011;3177;49.880;8.836;2022-12-07T09:09:52;14.30;;;10.70;;
6288;SDS011;3177;49.880;8.836;2022-12-07T09:12:21;13.33;;;9.77;;
6288;SDS011;3177;49.880;8.836;2022-12-07T09:14:48;15.17;;;8.90;;
6288;SDS011;3177;49.880;8.836;2022-12-07T09:17:15;11.63;;;8.43;;
6288;SDS011;3177;49.880;8.836;2022-12-07T09:19:42;12.97;;;9.23;;
6288;SDS011;3177;49.880;8.836;2022-12-07T09:22:09;11.87;;;8.97;;
6288;SDS011;3177;49.880;8.836;2022-12-07T09:24:36;11.03;;;8.73;;
6288;SDS011;3177;49.880;8.836;2022-12-07T09:27:03;12.33;;;9.37;;
6288;SDS011;3177;49.880;8.836;2022-12-07T09:29:32;11.73;;;9.30;;
6288;SDS011;3177;49.880;8.836;2022-12-07T09:31:59;13.00;;;9.23;;
6288;SDS011;3177;49.880;8.836;2022-12-07T09:34:26;14.93;;;8.77;;
6288;SDS011;3177;49.880;8.836;2022-12-07T09:36:53;11.73;;;7.93;;
6288;SDS011;3177;49.880;8.836;2022-12-07T09:39:20;9.30;;;7.83;;
6288;SDS011;3177;49.880;8.836;2022-12-07T09:41:47;12.40;;;8.73;;
6288;SDS011;3177;49.880;8.836;2022-12-07T09:44:17;12.37;;;9.30;;
6288;SDS011;3177;49.880;8.836;2022-12-07T09:46:46;10.17;;;8.20;;
6288;SDS011;3177;49.880;8.836;2022-12-07T09:49:16;11.83;;;8.23;;
6288;SDS011;3177;49.880;8.836;2022-12-07T09:51:43;12.07;;;7.93;;
6288;SDS011;3177;49.880;8.836;2022-12-07T09:54:11;11.23;;;8.73;;
6288;SDS011;3177;49.880;8.836;2022-12-07T09:56:39;12.97;;;8.20;;
6288;SDS011;3177;49.880;8.836;2022-12-07T09:59:09;10.93;;;7.30;;
6288;SDS011;3177;49.880;8.836;2022-12-07T10:01:39;10.90;;;8.47;;
6288;SDS011;3177;49.880;8.836;2022-12-07T10:04:10;12.63;;;8.10;;
6288;SDS011;3177;49.880;8.836;2022-12-07T10:06:38;9.97;;;7.83;;
6288;SDS011;3177;49.880;8.836;2022-12-07T10:09:09;11.17;;;7.13;;
6288;SDS011;3177;49.880;8.836;2022-12-07T10:14:18;10.17;;;7.43;;
6288;SDS011;3177;49.880;8.836;2022-12-07T10:16:46;9.43;;;7.23;;
6288;SDS011;3177;49.880;8.836;2022-12-07T10:19:22;8.07;;;6.47;;
6288;SDS011;3177;49.880;8.836;2022-12-07T10:22:00;13.67;;;8.27;;
6288;SDS011;3177;49.880;8.836;2022-12-07T10:24:27;8.97;;;6.90;;
6288;SDS011;3177;49.880;8.836;2022-12-07T10:26:54;9.63;;;7.63;;
6288;SDS011;3177;49.880;8.836;2022-12-07T10:29:23;12.60;;;7.30;;
6288;SDS011;3177;49.880;8.836;2022-12-07T10:31:51;12.60;;;7.43;;
6288;SDS011;3177;49.880;8.836;2022-12-07T10:34:22;8.47;;;7.03;;
6288;SDS011;3177;49.880;8.836;2022-12-07T10:36:50;10.10;;;7.70;;
6288;SDS011;3177;49.880;8.836;2022-12-07T10:39:18;11.67;;;7.63;;
6288;SDS011;3177;49.880;8.836;2022-12-07T10:41:55;9.53;;;7.03;;
6288;SDS011;3177;49.880;8.836;2022-12-07T10:44:23;11.40;;;7.73;;
6288;SDS011;3177;49.880;8.836;2022-12-07T10:47:06;12.10;;;8.43;;
6288;SDS011;3177;49.880;8.836;2022-12-07T10:49:46;12.73;;;8.00;;
6288;SDS011;3177;49.880;8.836;2022-12-07T10:52:19;9.13;;;7.87;;
6288;SDS011;3177;49.880;8.836;2022-12-07T10:54:49;9.40;;;6.77;;
6288;SDS011;3177;49.880;8.836;2022-12-07T10:57:24;9.93;;;7.87;;
6288;SDS011;3177;49.880;8.836;2022-12-07T11:00:00;11.20;;;7.90;;
6288;SDS011;3177;49.880;8.836;2022-12-07T11:02:41;7.87;;;6.17;;
6288;SDS011;3177;49.880;8.836;2022-12-07T11:05:16;9.17;;;7.00;;
6288;SDS011;3177;49.880;8.836;2022-12-07T11:07:46;11.67;;;8.13;;
6288;SDS011;3177;49.880;8.836;2022-12-07T11:10:17;11.60;;;7.53;;
6288;SDS011;3177;49.880;8.836;2022-12-07T11:15:28;10.47;;;8.30;;
6288;SDS011;3177;49.880;8.836;2022-12-07T11:18:00;11.63;;;7.60;;
6288;SDS011;3177;49.880;8.836;2022-12-07T11:20:36;10.70;;;7.03;;
6288;SDS011;3177;49.880;8.836;2022-12-07T11:23:10;12.10;;;7.40;;
6288;SDS011;3177;49.880;8.836;2022-12-07T11:25:42;10.33;;;7.20;;
6288;SDS011;3177;49.880;8.836;2022-12-07T11:28:15;9.80;;;6.47;;
6288;SDS011;3177;49.880;8.836;2022-12-07T11:30:47;10.30;;;7.40;;
6288;SDS011;3177;49.880;8.836;2022-12-07T11:33:17;10.77;;;7.33;;
6288;SDS011;3177;49.880;8.836;2022-12-07T11:35:50;12.57;;;8.63;;
6288;SDS011;3177;49.880;8.836;2022-12-07T11:38:22;8.87;;;6.50;;
6288;SDS011;3177;49.880;8.836;2022-12-07T11:40:51;8.70;;;6.63;;
6288;SDS011;3177;49.880;8.836;2022-12-07T11:43:21;7.23;;;5.70;;
6288;SDS011;3177;49.880;8.836;2022-12-07T11:45:52;12.80;;;6.80;;
6288;SDS011;3177;49.880;8.836;2022-12-07T11:48:22;8.30;;;6.43;;
6288;SDS011;3177;49.880;8.836;2022-12-07T11:50:54;11.13;;;7.33;;
6288;SDS011;3177;49.880;8.836;2022-12-07T11:53:22;7.93;;;6.47;;
6288;SDS011;3177;49.880;8.836;2022-12-07T11:55:52;11.77;;;6.93;;
6288;SDS011;3177;49.880;8.836;2022-12-07T11:58:35;10.80;;;6.77;;
6288;SDS011;3177;49.880;8.836;2022-12-07T12:01:07;9.40;;;6.30;;
6288;SDS011;3177;49.880;8.836;2022-12-07T12:03:36;8.57;;;6.00;;
6288;SDS011;3177;49.880;8.836;2022-12-07T12:06:06;8.63;;;6.20;;
6288;SDS011;3177;49.880;8.836;2022-12-07T12:08:35;10.00;;;6.77;;
6288;SDS011;3177;49.880;8.836;2022-12-07T12:11:08;8.37;;;5.87;;
6288;SDS011;3177;49.880;8.836;2022-12-07T12:16:36;6.87;;;5.60;;
6288;SDS011;3177;49.880;8.836;2022-12-07T12:19:11;6.43;;;4.83;;
6288;SDS011;3177;49.880;8.836;2022-12-07T12:21:43;7.67;;;5.40;;
6288;SDS011;3177;49.880;8.836;2022-12-07T12:24:13;6.33;;;4.70;;
6288;SDS011;3177;49.880;8.836;2022-12-07T12:26:48;5.73;;;4.40;;
6288;SDS011;3177;49.880;8.836;2022-12-07T12:29:21;6.43;;;4.60;;
6288;SDS011;3177;49.880;8.836;2022-12-07T12:32:04;4.40;;;3.77;;
6288;SDS011;3177;49.880;8.836;2022-12-07T12:34:33;5.30;;;3.93;;
6288;SDS011;3177;49.880;8.836;2022-12-07T12:37:17;4.00;;;3.57;;
6288;SDS011;3177;49.880;8.836;2022-12-07T12:42:48;4.27;;;3.30;;
6288;SDS011;3177;49.880;8.836;2022-12-07T12:45:20;4.50;;;3.40;;
6288;SDS011;3177;49.880;8.836;2022-12-07T12:50:24;5.70;;;3.80;;
6288;SDS011;3177;49.880;8.836;2022-12-07T12:52:57;5.90;;;4.30;;
6288;SDS011;3177;49.880;8.836;2022-12-07T13:06:56;7.93;;;5.73;;
6288;SDS011;3177;49.880;8.836;2022-12-07T13:09:25;7.23;;;5.33;;
6288;SDS011;3177;49.880;8.836;2022-12-07T13:11:57;5.80;;;4.60;;
6288;SDS011;3177;49.880;8.836;2022-12-07T13:17:12;9.87;;;5.60;;
6288;SDS011;3177;49.880;8.836;2022-12-07T13:25:23;6.90;;;4.70;;
6288;SDS011;3177;49.880;8.836;2022-12-07T13:27:56;8.17;;;4.47;;
6288;SDS011;3177;49.880;8.836;2022-12-07T13:30:24;9.93;;;3.80;;
6288;SDS011;3177;49.880;8.836;2022-12-07T13:32:52;6.67;;;4.93;;
6288;SDS011;3177;49.880;8.836;2022-12-07T13:35:33;5.47;;;4.20;;
6288;SDS011;3177;49.880;8.836;2022-12-07T13:38:02;7.33;;;4.40;;
6288;SDS011;3177;49.880;8.836;2022-12-07T13:40:32;9.20;;;4.93;;
6288;SDS011;3177;49.880;8.836;2022-12-07T13:43:00;6.07;;;4.63;;
6288;SDS011;3177;49.880;8.836;2022-12-07T13:45:28;10.40;;;4.50;;
6288;SDS011;3177;49.880;8.836;2022-12-07T13:48:14;5.37;;;3.87;;
6288;SDS011;3177;49.880;8.836;2022-12-07T13:50:51;7.60;;;3.93;;
6288;SDS011;3177;49.880;8.836;2022-12-07T13:53:18;2.47;;;2.33;;
6288;SDS011;3177;49.880;8.836;2022-12-07T13:55:47;4.40;;;3.37;;
6288;SDS011;3177;49.880;8.836;2022-12-07T13:58:14;3.63;;;3.10;;
6288;SDS011;3177;49.880;8.836;2022-12-07T14:00:42;3.83;;;3.50;;
6288;SDS011;3177;49.880;8.836;2022-12-07T14:03:29;4.40;;;3.40;;
6288;SDS011;3177;49.880;8.836;2022-12-07T14:06:03;6.40;;;3.43;;
6288;SDS011;3177;49.880;8.836;2022-12-07T14:08:31;8.37;;;4.17;;
6288;SDS011;3177;49.880;8.836;2022-12-07T14:10:59;5.63;;;3.70;;
6288;SDS011;3177;49.880;8.836;2022-12-07T14:13:28;5.40;;;3.13;;
6288;SDS011;3177;49.880;8.836;2022-12-07T14:15:56;5.13;;;3.50;;
6288;SDS011;3177;49.880;8.836;2022-12-07T14:18:26;5.47;;;3.37;;
6288;SDS011;3177;49.880;8.836;2022-12-07T14:21:02;6.60;;;5.10;;
6288;SDS011;3177;49.880;8.836;2022-12-07T14:23:29;10.00;;;4.07;;
6288;SDS011;3177;49.880;8.836;2022-12-07T14:26:06;9.20;;;4.20;;
6288;SDS011;3177;49.880;8.836;2022-12-07T14:28:34;6.43;;;4.27;;
6288;SDS011;3177;49.880;8.836;2022-12-07T14:31:02;6.87;;;4.37;;
6288;SDS011;3177;49.880;8.836;2022-12-07T14:33:29;5.60;;;3.80;;
6288;SDS011;3177;49.880;8.836;2022-12-07T14:35:56;6.47;;;3.87;;
6288;SDS011;3177;49.880;8.836;2022-12-07T14:38:24;8.53;;;3.47;;
6288;SDS011;3177;49.880;8.836;2022-12-07T14:40:51;16.47;;;4.60;;
6288;SDS011;3177;49.880;8.836;2022-12-07T14:43:20;6.37;;;4.00;;
6288;SDS011;3177;49.880;8.836;2022-12-07T14:45:48;6.13;;;4.40;;
6288;SDS011;3177;49.880;8.836;2022-12-07T14:48:15;6.50;;;4.83;;
6288;SDS011;3177;49.880;8.836;2022-12-07T14:50:43;5.47;;;4.53;;
6288;SDS011;3177;49.880;8.836;2022-12-07T14:53:12;7.90;;;4.60;;
6288;SDS011;3177;49.880;8.836;2022-12-07T14:55:40;7.63;;;4.37;;
6288;SDS011;3177;49.880;8.836;2022-12-07T14:58:10;6.23;;;4.67;;
6288;SDS011;3177;49.880;8.836;2022-12-07T15:00:40;7.37;;;4.50;;
6288;SDS011;3177;49.880;8.836;2022-12-07T15:03:07;9.43;;;4.60;;
6288;SDS011;3177;49.880;8.836;2022-12-07T15:05:34;5.73;;;5.00;;
6288;SDS011;3177;49.880;8.836;2022-12-07T15:08:02;9.80;;;6.10;;
6288;SDS011;3177;49.880;8.836;2022-12-07T15:10:31;6.63;;;5.33;;
6288;SDS011;3177;49.880;8.836;2022-12-07T15:12:58;5.50;;;5.00;;
6288;SDS011;3177;49.880;8.836;2022-12-07T15:15:48;8.37;;;5.50;;
6288;SDS011;3177;49.880;8.836;2022-12-07T15:18:15;8.73;;;6.07;;
6288;SDS011;3177;49.880;8.836;2022-12-07T15:20:43;6.43;;;4.93;;
6288;SDS011;3177;49.880;8.836;2022-12-07T15:23:10;7.47;;;5.27;;
6288;SDS011;3177;49.880;8.836;2022-12-07T15:25:39;8.73;;;5.30;;
6288;SDS011;3177;49.880;8.836;2022-12-07T15:28:07;10.27;;;5.27;;
6288;SDS011;3177;49.880;8.836;2022-12-07T15:30:34;7.13;;;5.07;;
6288;SDS011;3177;49.880;8.836;2022-12-07T15:33:04;8.20;;;5.60;;
6288;SDS011;3177;49.880;8.836;2022-12-07T15:35:33;5.70;;;4.53;;
6288;SDS011;3177;49.880;8.836;2022-12-07T15:38:04;8.77;;;5.20;;
6288;SDS011;3177;49.880;8.836;2022-12-07T15:42:59;7.43;;;5.10;;
6288;SDS011;3177;49.880;8.836;2022-12-07T15:45:27;6.90;;;5.63;;
6288;SDS011;3177;49.880;8.836;2022-12-07T15:47:53;4.97;;;3.40;;
6288;SDS011;3177;49.880;8.836;2022-12-07T15:50:22;5.60;;;3.90;;
6288;SDS011;3177;49.880;8.836;2022-12-07T15:52:49;2.93;;;2.70;;
6288;SDS011;3177;49.880;8.836;2022-12-07T15:55:16;3.53;;;2.93;;